createdAt,value
2023-04-20T00:01:14.552Z,47.15
2023-04-20T00:03:42.221Z,46.87
2023-04-20T00:06:10.784Z,47.11
2023-04-20T00:08:38.548Z,47.16
2023-04-20T00:11:07.520Z,47.26
2023-04-20T00:13:36.022Z,47.27
2023-04-20T00:16:03.572Z,47.54
2023-04-20T00:18:31.358Z,48.12
2023-04-20T00:20:59.024Z,48.19
2023-04-20T00:23:28.482Z,48.82
2023-04-20T00:25:56.085Z,49.07
2023-04-20T00:28:25.452Z,49.48
2023-04-20T00:30:53.067Z,49.75
2023-04-20T00:33:20.666Z,50.33
2023-04-20T00:35:48.348Z,50.68
2023-04-20T00:38:18.303Z,50.68
2023-04-20T00:40:48.821Z,51.03
2023-04-20T00:43:52.565Z,51.75
2023-04-20T00:46:20.777Z,51.93
2023-04-20T00:48:50.949Z,51.92
2023-04-20T00:51:19.222Z,52.62
2023-04-20T00:53:46.936Z,52.42
2023-04-20T00:56:16.351Z,53.21
2023-04-20T00:58:48.308Z,53.01
2023-04-20T01:01:18.249Z,53.50
2023-04-20T01:03:47.542Z,53.32
2023-04-20T01:06:17.000Z,54.06
2023-04-20T01:08:49.328Z,54.20
2023-04-20T01:11:20.979Z,54.27
2023-04-20T01:13:50.344Z,54.39
2023-04-20T01:16:19.440Z,54.79
2023-04-20T01:18:48.642Z,55.15
2023-04-20T01:21:23.307Z,56.12
2023-04-20T01:23:54.480Z,56.21
2023-04-20T01:26:25.203Z,56.71
2023-04-20T01:28:52.815Z,56.78
2023-04-20T01:31:44.906Z,57.10
2023-04-20T01:34:13.456Z,57.29
2023-04-20T01:36:41.711Z,58.08
2023-04-20T01:39:11.850Z,58.27
2023-04-20T01:41:42.280Z,58.21
2023-04-20T01:44:10.803Z,58.60
2023-04-20T01:46:40.403Z,58.84
2023-04-20T01:49:08.664Z,59.24
2023-04-20T01:51:38.425Z,59.21
2023-04-20T01:54:06.448Z,59.75
2023-04-20T01:56:36.610Z,59.82
2023-04-20T01:59:04.400Z,60.04
2023-04-20T02:01:32.111Z,60.00
2023-04-20T02:04:01.483Z,60.27
2023-04-20T02:06:29.393Z,60.50
2023-04-20T02:08:58.736Z,60.40
2023-04-20T02:11:26.380Z,60.84
2023-04-20T02:13:56.293Z,60.79
2023-04-20T02:16:24.694Z,60.96
2023-04-20T02:18:52.754Z,60.90
2023-04-20T02:21:20.270Z,61.17
2023-04-20T02:23:48.418Z,60.99
2023-04-20T02:26:16.736Z,61.41
2023-04-20T02:29:10.868Z,61.61
2023-04-20T02:31:38.655Z,61.33
2023-04-20T02:34:09.280Z,61.49
2023-04-20T02:36:40.748Z,61.88
2023-04-20T02:39:10.092Z,61.99
2023-04-20T02:41:37.644Z,62.14
2023-04-20T02:44:06.410Z,63.13
2023-04-20T02:46:38.505Z,63.21
2023-04-20T02:49:08.403Z,63.78
2023-04-20T02:51:40.929Z,64.32
2023-04-20T02:54:08.635Z,64.41
2023-04-20T02:56:36.948Z,64.79
2023-04-20T02:59:09.404Z,64.85
2023-04-20T03:01:44.424Z,65.55
2023-04-20T03:04:16.019Z,65.28
2023-04-20T03:06:51.572Z,65.96
2023-04-20T03:09:26.394Z,66.39
2023-04-20T03:12:27.169Z,66.39
2023-04-20T03:15:13.480Z,66.73
2023-04-20T03:17:53.352Z,66.85
2023-04-20T03:20:20.986Z,67.27
2023-04-20T03:22:51.018Z,67.49
2023-04-20T03:25:21.315Z,67.92
2023-04-20T03:28:16.336Z,67.98
2023-04-20T03:30:44.347Z,68.66
2023-04-20T03:33:17.446Z,69.22
2023-04-20T03:35:45.304Z,69.66
2023-04-20T03:38:14.654Z,70.20
2023-04-20T03:40:43.792Z,70.53
2023-04-20T03:43:13.041Z,71.16
2023-04-20T03:45:41.311Z,71.45
2023-04-20T03:48:09.020Z,71.59
2023-04-20T03:50:39.271Z,72.00
2023-04-20T03:53:07.094Z,72.58
2023-04-20T03:55:34.893Z,72.63
2023-04-20T03:58:06.800Z,72.85
2023-04-20T04:00:45.326Z,73.13
2023-04-20T04:03:15.701Z,73.22
2023-04-20T04:05:46.313Z,73.63
2023-04-20T04:08:16.295Z,73.53
2023-04-20T04:10:45.288Z,73.80
2023-04-20T04:13:12.872Z,74.32
2023-04-20T04:15:40.982Z,74.12
2023-04-20T04:18:13.182Z,74.53
2023-04-20T04:20:41.979Z,74.86
2023-04-20T04:23:13.358Z,74.86
2023-04-20T04:25:47.193Z,75.00
2023-04-20T04:28:16.762Z,75.36
2023-04-20T04:30:56.057Z,75.46
2023-04-20T04:33:25.368Z,75.56
2023-04-20T04:35:55.154Z,75.86
2023-04-20T04:38:25.229Z,76.24
2023-04-20T04:40:53.804Z,76.56
2023-04-20T04:43:21.562Z,76.82
2023-04-20T04:45:59.641Z,77.11
2023-04-20T04:48:28.741Z,77.54
2023-04-20T04:50:56.290Z,77.65
2023-04-20T04:53:26.117Z,77.90
2023-04-20T04:55:53.647Z,78.08
2023-04-20T04:58:22.351Z,78.16
2023-04-20T05:00:50.894Z,78.24
2023-04-20T05:03:18.938Z,78.23
2023-04-20T05:05:46.764Z,78.21
2023-04-20T05:08:15.883Z,78.69
2023-04-20T05:10:44.884Z,79.07
2023-04-20T05:13:12.452Z,79.02
2023-04-20T05:15:41.275Z,79.04
2023-04-20T05:18:10.973Z,79.16
2023-04-20T05:20:39.016Z,79.33
2023-04-20T05:23:07.298Z,79.53
2023-04-20T05:25:34.965Z,79.52
2023-04-20T05:28:04.279Z,80.12
2023-04-20T05:30:35.918Z,80.30
2023-04-20T05:33:03.680Z,80.81
2023-04-20T05:35:32.304Z,80.56
2023-04-20T05:38:02.503Z,80.81
2023-04-20T05:40:30.207Z,80.52
2023-04-20T05:42:57.765Z,80.57
2023-04-20T05:45:28.156Z,80.84
2023-04-20T05:47:56.695Z,80.71
2023-04-20T05:50:24.790Z,80.83
2023-04-20T05:52:53.439Z,80.87
2023-04-20T05:55:22.869Z,81.18
2023-04-20T05:57:52.580Z,81.34
2023-04-20T06:00:24.437Z,81.52
2023-04-20T06:02:55.659Z,81.94
2023-04-20T06:05:23.762Z,81.91
2023-04-20T06:07:51.816Z,81.70
2023-04-20T06:10:19.435Z,82.23
2023-04-20T06:12:49.352Z,82.09
2023-04-20T06:15:17.442Z,82.56
2023-04-20T06:17:46.364Z,82.64
2023-04-20T06:20:18.297Z,82.79
2023-04-20T06:22:47.259Z,82.82
2023-04-20T06:25:16.076Z,82.93
2023-04-20T06:27:43.726Z,83.29
2023-04-20T06:30:12.209Z,83.03
2023-04-20T06:32:39.819Z,83.39
2023-04-20T06:35:12.303Z,83.67
2023-04-20T06:37:41.152Z,83.56
2023-04-20T06:40:15.002Z,83.45
2023-04-20T06:42:43.913Z,83.61
2023-04-20T06:45:12.753Z,83.87
2023-04-20T06:47:40.538Z,84.36
2023-04-20T06:50:10.366Z,84.70
2023-04-20T06:52:38.087Z,84.61
2023-04-20T06:55:08.311Z,84.59
2023-04-20T06:57:38.477Z,84.48
2023-04-20T07:00:09.593Z,84.60
2023-04-20T07:02:44.728Z,84.86
2023-04-20T07:05:14.430Z,84.69
2023-04-20T07:07:42.558Z,84.51
2023-04-20T07:10:13.350Z,84.79
2023-04-20T07:12:43.482Z,84.74
2023-04-20T07:15:12.418Z,84.69
2023-04-20T07:17:41.391Z,84.70
2023-04-20T07:20:10.217Z,84.90
2023-04-20T07:22:41.618Z,85.00
2023-04-20T07:25:14.318Z,84.65
2023-04-20T07:27:43.686Z,85.20
2023-04-20T07:30:13.419Z,86.02
2023-04-20T07:32:45.334Z,86.92
2023-04-20T07:35:12.955Z,87.82
2023-04-20T07:37:41.316Z,88.00
2023-04-20T07:40:13.410Z,88.04
2023-04-20T07:42:43.157Z,88.19
2023-04-20T07:45:12.038Z,88.37
2023-04-20T07:47:40.387Z,87.86
2023-04-20T07:50:09.114Z,87.44
2023-04-20T07:52:37.401Z,88.10
2023-04-20T07:55:08.063Z,87.12
2023-04-20T07:57:37.771Z,87.28
2023-04-20T08:00:07.383Z,86.91
2023-04-20T08:02:40.509Z,87.00
2023-04-20T08:05:10.032Z,87.38
2023-04-20T08:07:39.328Z,87.70
2023-04-20T08:10:08.376Z,87.75
2023-04-20T08:12:38.423Z,87.89
2023-04-20T08:15:07.160Z,87.38
2023-04-20T08:17:35.297Z,87.37
2023-04-20T08:20:04.736Z,87.41
2023-04-20T08:22:33.455Z,87.27
2023-04-20T08:25:01.645Z,87.12
2023-04-20T08:27:30.563Z,87.33
2023-04-20T08:29:59.656Z,86.70
2023-04-20T08:32:27.598Z,86.69
2023-04-20T08:34:56.314Z,86.58
2023-04-20T08:37:25.124Z,85.29
2023-04-20T08:39:52.685Z,85.16
2023-04-20T08:42:20.997Z,85.02
2023-04-20T08:44:48.663Z,84.52
2023-04-20T08:47:17.544Z,84.01
2023-04-20T08:49:47.324Z,83.06
2023-04-20T08:52:15.808Z,82.18
2023-04-20T08:54:55.941Z,80.34
2023-04-20T08:57:25.463Z,80.09
2023-04-20T08:59:54.528Z,79.45
2023-04-20T09:02:23.753Z,78.87
2023-04-20T09:05:02.018Z,78.38
2023-04-20T09:07:31.314Z,78.13
2023-04-20T09:10:27.618Z,77.37
2023-04-20T09:12:55.929Z,75.63
2023-04-20T09:15:27.973Z,76.77
2023-04-20T09:17:57.822Z,77.09
2023-04-20T09:20:36.409Z,77.21
2023-04-20T09:23:13.697Z,76.83
2023-04-20T09:25:46.037Z,77.23
2023-04-20T09:28:14.302Z,77.19
2023-04-20T09:30:44.391Z,77.17
2023-04-20T09:33:16.260Z,76.74
2023-04-20T09:35:46.403Z,76.52
2023-04-20T09:38:17.093Z,76.86
2023-04-20T09:41:09.006Z,77.04
2023-04-20T09:43:37.723Z,77.05
2023-04-20T09:46:07.261Z,76.67
2023-04-20T09:48:37.284Z,76.39
2023-04-20T09:51:06.559Z,76.37
2023-04-20T09:53:35.888Z,74.98
2023-04-20T09:56:06.295Z,74.56
2023-04-20T09:58:36.457Z,74.30
2023-04-20T10:01:04.270Z,73.52
2023-04-20T10:03:32.188Z,73.38
2023-04-20T10:06:01.310Z,73.22
2023-04-20T10:08:41.320Z,73.06
2023-04-20T10:11:09.302Z,72.30
2023-04-20T10:13:38.756Z,72.84
2023-04-20T10:16:18.591Z,73.03
2023-04-20T10:18:57.610Z,72.79
2023-04-20T10:21:27.793Z,72.62
2023-04-20T10:23:56.348Z,73.22
2023-04-20T10:26:24.162Z,72.31
2023-04-20T10:28:51.824Z,72.76
2023-04-20T10:31:21.939Z,72.33
2023-04-20T10:33:55.406Z,70.55
2023-04-20T10:36:32.125Z,69.76
2023-04-20T10:39:01.375Z,69.57
2023-04-20T10:41:31.057Z,69.48
2023-04-20T10:44:08.519Z,69.37
2023-04-20T10:46:36.137Z,68.81
2023-04-20T10:49:03.858Z,67.61
2023-04-20T10:51:32.796Z,67.20
2023-04-20T10:54:02.151Z,67.50
2023-04-20T10:56:37.835Z,67.34
2023-04-20T10:59:10.374Z,67.36
2023-04-20T11:01:39.903Z,66.50
2023-04-20T11:04:08.068Z,65.69
2023-04-20T11:06:37.700Z,66.66
2023-04-20T11:09:05.990Z,67.52
2023-04-20T11:11:33.598Z,65.96
2023-04-20T11:14:09.929Z,65.38
2023-04-20T11:16:51.379Z,65.12
2023-04-20T11:19:25.319Z,66.07
2023-04-20T11:21:55.542Z,64.64
2023-04-20T11:24:25.598Z,66.10
2023-04-20T11:26:54.830Z,66.55
2023-04-20T11:29:30.803Z,62.03
2023-04-20T11:31:59.367Z,61.63
2023-04-20T11:34:27.316Z,61.37
2023-04-20T11:36:56.914Z,61.44
2023-04-20T11:39:26.347Z,60.96
2023-04-20T11:41:54.088Z,60.44
2023-04-20T11:44:22.203Z,60.89
2023-04-20T11:46:50.314Z,61.00
2023-04-20T11:49:18.464Z,61.38
2023-04-20T11:51:47.449Z,60.84
2023-04-20T11:54:16.745Z,60.95
2023-04-20T11:56:46.713Z,62.15
2023-04-20T11:59:16.869Z,61.35
2023-04-20T12:01:45.364Z,61.91
2023-04-20T12:04:13.147Z,60.78
2023-04-20T12:06:41.359Z,60.95
2023-04-20T12:09:08.868Z,60.63
2023-04-20T12:11:38.247Z,59.54
2023-04-20T12:14:06.463Z,59.04
2023-04-20T12:16:34.202Z,59.56
2023-04-20T12:19:01.855Z,59.18
2023-04-20T12:21:29.472Z,60.39
2023-04-20T12:23:58.441Z,60.65
2023-04-20T12:26:37.371Z,60.51
2023-04-20T12:29:08.085Z,61.17
2023-04-20T12:31:36.414Z,61.59
2023-04-20T12:34:05.501Z,61.74
2023-04-20T12:36:34.754Z,60.97
2023-04-20T12:39:06.325Z,60.86
2023-04-20T12:41:34.322Z,61.21
2023-04-20T12:44:07.031Z,59.94
2023-04-20T12:46:37.120Z,60.11
2023-04-20T12:49:04.703Z,59.33
2023-04-20T12:51:35.312Z,57.27
2023-04-20T12:54:03.014Z,57.49
2023-04-20T12:56:30.673Z,55.45
2023-04-20T12:58:58.399Z,56.90
2023-04-20T13:01:26.746Z,57.75
2023-04-20T13:03:56.420Z,57.96
2023-04-20T13:06:24.542Z,57.89
2023-04-20T13:08:52.291Z,57.77
2023-04-20T13:11:19.905Z,56.98
2023-04-20T13:13:47.748Z,56.66
2023-04-20T13:16:15.562Z,57.07
2023-04-20T13:18:43.305Z,56.84
2023-04-20T13:21:12.227Z,56.58
2023-04-20T13:23:40.026Z,57.11
2023-04-20T13:26:08.395Z,57.09
2023-04-20T13:28:37.589Z,56.02
2023-04-20T13:31:06.475Z,54.15
2023-04-20T13:33:34.265Z,54.94
2023-04-20T13:36:03.335Z,54.75
2023-04-20T13:38:33.710Z,54.48
2023-04-20T13:41:01.301Z,54.32
2023-04-20T13:43:29.416Z,54.85
2023-04-20T13:45:57.378Z,55.01
2023-04-20T13:48:28.326Z,54.82
2023-04-20T13:50:56.057Z,54.89
2023-04-20T13:53:23.795Z,54.11
2023-04-20T13:55:52.873Z,54.85
2023-04-20T13:58:20.494Z,53.45
2023-04-20T14:00:48.057Z,52.19
2023-04-20T14:03:18.709Z,53.12
2023-04-20T14:05:46.444Z,51.76
2023-04-20T14:08:16.330Z,51.98
2023-04-20T14:10:44.807Z,52.71
2023-04-20T14:13:15.353Z,52.97
2023-04-20T14:15:43.509Z,52.71
2023-04-20T14:18:11.389Z,51.68
2023-04-20T14:20:38.994Z,52.51
2023-04-20T14:23:09.421Z,52.92
2023-04-20T14:25:41.280Z,53.22
2023-04-20T14:28:09.323Z,52.38
2023-04-20T14:30:39.116Z,51.53
2023-04-20T14:33:32.461Z,51.47
2023-04-20T14:36:00.055Z,51.51
2023-04-20T14:38:27.650Z,52.48
2023-04-20T14:40:55.213Z,52.01
2023-04-20T14:43:23.208Z,51.23
2023-04-20T14:45:52.128Z,51.99
2023-04-20T14:48:19.837Z,52.12
2023-04-20T14:50:47.451Z,51.21
2023-04-20T14:53:15.034Z,50.41
2023-04-20T14:55:44.331Z,50.99
2023-04-20T14:58:13.431Z,50.07
2023-04-20T15:00:40.991Z,50.89
2023-04-20T15:03:11.771Z,51.90
2023-04-20T15:05:39.610Z,51.24
2023-04-20T15:08:07.437Z,50.79
2023-04-20T15:10:35.887Z,50.20
2023-04-20T15:13:05.758Z,50.83
2023-04-20T15:15:46.959Z,51.14
2023-04-20T15:18:17.280Z,50.94
2023-04-20T15:20:45.103Z,50.67
2023-04-20T15:23:13.368Z,50.52
2023-04-20T15:25:40.977Z,50.69
2023-04-20T15:28:08.542Z,50.75
2023-04-20T15:30:36.336Z,50.76
2023-04-20T15:33:05.894Z,50.59
2023-04-20T15:35:38.330Z,50.59
2023-04-20T15:38:06.032Z,50.99
2023-04-20T15:40:34.471Z,51.58
2023-04-20T15:43:03.436Z,51.22
2023-04-20T15:48:24.251Z,52.52
2023-04-20T15:50:53.353Z,51.76
2023-04-20T15:53:22.085Z,51.38
2023-04-20T15:55:49.819Z,52.20
2023-04-20T15:58:17.640Z,52.19
2023-04-20T16:00:46.148Z,51.81
2023-04-20T16:03:14.574Z,52.18
2023-04-20T16:05:43.441Z,52.43
2023-04-20T16:08:13.057Z,53.34
2023-04-20T16:10:40.660Z,53.12
2023-04-20T16:13:08.214Z,52.95
2023-04-20T16:15:36.123Z,52.48
2023-04-20T16:18:05.305Z,52.73
2023-04-20T16:20:33.784Z,52.89
2023-04-20T16:23:01.390Z,53.46
2023-04-20T16:25:32.375Z,53.66
2023-04-20T16:28:00.573Z,54.62
2023-04-20T16:30:28.263Z,55.27
2023-04-20T16:32:55.900Z,56.06
2023-04-20T16:35:23.687Z,57.37
2023-04-20T16:37:51.369Z,58.22
2023-04-20T16:40:20.776Z,59.02
2023-04-20T16:42:49.726Z,60.34
2023-04-20T16:45:17.429Z,60.43
2023-04-20T16:47:45.184Z,60.24
2023-04-20T16:50:19.151Z,60.47
2023-04-20T16:52:47.065Z,60.62
2023-04-20T16:55:14.600Z,61.63
2023-04-20T16:57:42.234Z,62.46
2023-04-20T17:00:12.892Z,62.63
2023-04-20T17:02:40.853Z,63.13
2023-04-20T17:05:09.284Z,63.11
2023-04-20T17:07:37.265Z,63.56
2023-04-20T17:10:05.246Z,64.08
2023-04-20T17:12:33.456Z,64.58
2023-04-20T17:15:01.306Z,65.27
2023-04-20T17:17:30.400Z,66.37
2023-04-20T17:19:57.990Z,66.12
2023-04-20T17:22:25.753Z,66.74
2023-04-20T17:24:54.453Z,66.71
2023-04-20T17:27:23.528Z,66.81
2023-04-20T17:29:51.595Z,66.88
2023-04-20T17:32:19.216Z,67.06
2023-04-20T17:34:51.134Z,67.56
2023-04-20T17:37:18.966Z,67.59
2023-04-20T17:39:47.391Z,67.64
2023-04-20T17:42:15.864Z,68.14
2023-04-20T17:44:45.474Z,69.05
2023-04-20T17:47:14.728Z,69.25
2023-04-20T17:49:43.385Z,69.67
2023-04-20T17:52:15.055Z,70.01
2023-04-20T17:54:44.350Z,70.64
2023-04-20T17:57:15.979Z,70.67
2023-04-20T17:59:44.422Z,71.19
2023-04-20T18:02:12.144Z,71.19
2023-04-20T18:04:40.049Z,71.75
2023-04-20T18:07:07.699Z,71.80
2023-04-20T18:09:36.748Z,72.47
2023-04-20T18:12:07.751Z,72.33
2023-04-20T18:14:35.348Z,72.02
2023-04-20T18:17:03.153Z,72.21
2023-04-20T18:19:32.530Z,73.03
2023-04-20T18:22:00.145Z,73.21
2023-04-20T18:24:29.358Z,73.55
2023-04-20T18:26:59.204Z,73.59
2023-04-20T18:29:28.801Z,74.21
2023-04-20T18:31:59.167Z,75.22
2023-04-20T18:34:29.846Z,75.83
2023-04-20T18:36:57.980Z,76.08
2023-04-20T18:39:26.495Z,76.67
2023-04-20T18:41:54.237Z,76.80
2023-04-20T18:44:23.302Z,76.83
2023-04-20T18:46:51.173Z,77.09
2023-04-20T18:49:18.740Z,77.25
2023-04-20T18:51:49.897Z,77.36
2023-04-20T18:54:17.835Z,77.88
2023-04-20T18:56:45.780Z,77.74
2023-04-20T18:59:13.782Z,77.74
2023-04-20T19:01:42.868Z,77.75
2023-04-20T19:04:10.588Z,77.51
2023-04-20T19:06:39.537Z,77.73
2023-04-20T19:09:08.328Z,77.56
2023-04-20T19:11:36.101Z,77.72
2023-04-20T19:14:03.788Z,77.60
2023-04-20T19:16:31.910Z,77.86
2023-04-20T19:19:01.312Z,77.59
2023-04-20T19:21:29.830Z,77.35
2023-04-20T19:23:57.536Z,77.36
2023-04-20T19:26:25.233Z,77.54
2023-04-20T19:28:53.779Z,77.56
2023-04-20T19:31:21.481Z,77.75
2023-04-20T19:33:49.060Z,77.75
2023-04-20T19:36:19.067Z,78.08
2023-04-20T19:38:50.383Z,78.12
2023-04-20T19:41:18.817Z,78.25
2023-04-20T19:43:47.789Z,78.82
2023-04-20T19:46:17.022Z,78.45
2023-04-20T19:48:45.210Z,78.87
2023-04-20T19:51:12.952Z,79.57
2023-04-20T19:53:41.966Z,79.60
2023-04-20T19:56:09.705Z,79.78
2023-04-20T19:58:37.505Z,79.48
2023-04-20T20:01:05.716Z,79.85
2023-04-20T20:03:33.524Z,79.97
2023-04-20T20:06:01.555Z,79.96
2023-04-20T20:08:29.846Z,80.48
2023-04-20T20:11:00.148Z,80.52
2023-04-20T20:13:28.061Z,80.90
2023-04-20T20:15:55.755Z,81.11
2023-04-20T20:18:24.208Z,81.12
2023-04-20T20:20:51.890Z,81.67
2023-04-20T20:23:19.553Z,81.52
2023-04-20T20:25:47.181Z,81.70
2023-04-20T20:28:16.471Z,81.39
2023-04-20T20:30:45.182Z,81.77
2023-04-20T20:33:13.932Z,81.86
2023-04-20T20:35:41.557Z,81.90
2023-04-20T20:38:10.728Z,82.20
2023-04-20T20:40:39.622Z,82.30
2023-04-20T20:43:07.329Z,82.69
2023-04-20T20:45:37.479Z,82.54
2023-04-20T20:48:05.615Z,83.10
2023-04-20T20:50:33.245Z,83.01
2023-04-20T20:53:01.098Z,83.31
2023-04-20T20:55:28.654Z,83.16
2023-04-20T20:57:56.220Z,83.49
2023-04-20T21:00:23.826Z,83.38
2023-04-20T21:02:53.313Z,83.33
2023-04-20T21:05:22.758Z,83.85
2023-04-20T21:07:51.169Z,84.11
2023-04-20T21:10:18.744Z,84.21
2023-04-20T21:12:46.459Z,84.71
2023-04-20T21:15:14.380Z,84.72
2023-04-20T21:17:41.937Z,84.94
2023-04-20T21:20:12.354Z,85.66
2023-04-20T21:22:40.109Z,85.69
2023-04-20T21:25:09.381Z,85.82
2023-04-20T21:27:37.002Z,86.46
2023-04-20T21:30:05.305Z,86.64
2023-04-20T21:32:33.360Z,86.25
2023-04-20T21:35:00.921Z,86.38
2023-04-20T21:37:29.807Z,86.29
2023-04-20T21:39:58.455Z,87.15
2023-04-20T21:42:26.224Z,87.44
2023-04-20T21:44:53.815Z,87.69
2023-04-20T21:47:21.617Z,87.89
2023-04-20T21:49:49.256Z,87.86
2023-04-20T21:52:16.882Z,88.38
2023-04-20T21:54:46.427Z,88.46
2023-04-20T21:57:14.949Z,88.60
2023-04-20T21:59:42.620Z,88.79
2023-04-20T22:02:10.342Z,88.96
2023-04-20T22:04:38.175Z,89.67
2023-04-20T22:07:05.890Z,89.93
2023-04-20T22:09:33.496Z,90.32
2023-04-20T22:12:03.253Z,90.50
2023-04-20T22:14:32.522Z,90.93
2023-04-20T22:17:01.642Z,91.15
2023-04-20T22:19:30.380Z,91.36
2023-04-20T22:21:57.902Z,91.39
2023-04-20T22:24:25.596Z,91.44
2023-04-20T22:26:53.826Z,92.05
2023-04-20T22:29:22.940Z,91.97
2023-04-20T22:31:50.629Z,92.11
2023-04-20T22:34:18.450Z,92.39
2023-04-20T22:36:46.369Z,92.63
2023-04-20T22:39:13.956Z,92.81
2023-04-20T22:41:41.528Z,93.04
2023-04-20T22:44:09.104Z,92.85
2023-04-20T22:46:38.118Z,92.90
2023-04-20T22:49:05.807Z,92.85
2023-04-20T22:51:33.859Z,92.76
2023-04-20T22:54:02.425Z,93.14
2023-04-20T22:56:30.256Z,93.29
2023-04-20T22:58:57.812Z,93.28
2023-04-20T23:01:27.420Z,93.90
2023-04-20T23:03:56.508Z,93.83
2023-04-20T23:06:24.570Z,94.21
2023-04-20T23:08:52.360Z,94.47
2023-04-20T23:11:20.710Z,94.28
2023-04-20T23:13:48.332Z,94.66
2023-04-20T23:16:16.420Z,95.22
2023-04-20T23:18:44.019Z,95.97
2023-04-20T23:21:13.525Z,96.23
2023-04-20T23:23:41.053Z,96.78
2023-04-20T23:26:08.989Z,97.25
2023-04-20T23:28:37.604Z,97.65
2023-04-20T23:31:05.990Z,97.74
2023-04-20T23:33:34.379Z,98.02
2023-04-20T23:36:01.945Z,98.23
2023-04-20T23:38:30.894Z,98.94
2023-04-20T23:40:58.483Z,98.56
2023-04-20T23:43:26.146Z,99.27
2023-04-20T23:45:53.932Z,99.09
2023-04-20T23:48:22.462Z,98.89
2023-04-20T23:50:52.549Z,99.22
2023-04-20T23:53:20.357Z,99.51
2023-04-20T23:55:53.347Z,99.87
2023-04-20T23:58:21.248Z,99.72
